TFFFTTPP

Guest
Details From TFFF - Martinique/Aime Cesaire Intl
To TTPP - Trinidad/Piarco Intl
Flight Number -
Tags decoded
Created
Modified
Stats Distance 254 nm / 471 km
Max Altitude 0 ft / 0 m
Waypoints 6
Social Downloads 8
Likes 0
Share VATSIM

Download

Looking for another format? Having issues loading an existing format? Contact us
Advertisement - Login to hide

Notes

Requested: TFFF SLU BNE SV GND TTPP

Route

TFFF SLU BNE SV GND TTPP

ID Type Via Altitude Latitude Longitude Leg Dist Tot Dist Heading (true) Name
O TFFF APT - 0 ft / 0 m 14.59103˚ -61.00317˚ - 0 nm - Martinique/Aime Cesaire Intl
SLU NDB - 0 ft / 0 m 14.01414˚ -61.00606˚ 34 nm 34 nm 180° / 180° VIGIE NDB
BNE NDB - 0 ft / 0 m 13.73361˚ -60.97750˚ 16 nm 51 nm 174° / 174° HEWANORRA NDB
SV NDB - 0 ft / 0 m 13.14064˚ -61.22617˚ 38 nm 90 nm 202° / 202° E.T. JOSHUA NDB
GND NDB - 0 ft / 0 m 12.00929˚ -61.78104˚ 75 nm 165 nm 206° / 206° POINT SALINES NDB
O TTPP APT - 0 ft / 0 m 10.59537˚ -61.33724˚ 88 nm 254 nm 163° / 163° Trinidad/Piarco Intl

Altitude Profile

Advertisement - Login to hide

Weather


0- 5 10 15 20 25 30 35+ Temperature / ° C

Clouds and Precipitation
Forecast for 2017-12-12 12:00 UTC. Updated 2 hours ago

Ground ~20,000 ft ~40,000 ft Winds

TFFF

Details ICAO TFFF (FDF)
Name Martinique/Aime Cesaire Intl
Region France (Guadeloupe, Martinique, Saint Barthélemy, Saint Martin)
Timezone America/Martinique (UTC-4.0)
Stats Elevation 16 ft / 5 m (AMSL)
Location 14.591032° -61.003173°
Runways 1
Magnetic Variation 15.058° W

METAR

TFFF 121230Z AUTO VRB02KT CAVOK 27/22 Q1015 TEMPO 4000 -SHRA FEW015TCU

Decode

TAF

TAF TFFF 121100Z 1212/1312 10010KT 9999 SCT025 PROB30 TEMPO 1212/1312 4000 -SHRA FEW015TCU

Decode

Departure Runways

ID Width Length Bearing (true) Bearing (mag) Surface Threshold Offset Overrun Length
09 148 ft / 45 m 9,852 ft / 3,003 m 79.93° 94.99° Asphalt 0 ft / 0 m 0 ft / 0 m
27 148 ft / 45 m 9,852 ft / 3,003 m 259.94° 275.00° Asphalt 820 ft / 250 m 948 ft / 289 m

TTPP

Details ICAO TTPP (POS)
Name Trinidad/Piarco Intl
Region Trinidad and Tobago
Timezone America/Port_of_Spain (UTC-4.0)
Stats Elevation 57 ft / 17 m (AMSL)
Location 10.595370° -61.337239°
Runways 1
Magnetic Variation 15.000° W

METAR

TTPP 121200Z 00000KT 9999 VCSH FEW016 25/21 Q1013 NOSIG

Decode

TAF

Not found

Destination Runways

ID Width Length Bearing (true) Bearing (mag) Surface Threshold Offset Overrun Length
10 151 ft / 46 m 10,486 ft / 3,196 m 89.83° 104.83° Asphalt 0 ft / 0 m 79 ft / 24 m
28 151 ft / 46 m 10,486 ft / 3,196 m 269.84° 284.84° Asphalt 0 ft / 0 m 184 ft / 56 m

Approach Navaids

Runway Type Ident Frequency Range Bearing (true) Bearing (mag) Slope Elevation
10 Localiser IPOS 109.70 MHz 18 nm / 33 km 89.49° 104.49° - 57 ft / 17 m (AMSL)
10 Glidescope IPOS 109.70 MHz 10 nm / 19 km 89.83° 104.84° 3.00° 57 ft / 17 m (AMSL)
10 DME IPOS 109.70 MHz 18 nm / 33 km - - - 57 ft / 17 m (AMSL)

Popular Alternatives